sensor_id;sensor_type;location;lat;lon;timestamp;temperature;humidity
33007;DHT22;19361;51.598;7.650;2023-07-29T00:00:35;22.90;71.20
33007;DHT22;19361;51.598;7.650;2023-07-29T00:05:56;22.90;71.30
33007;DHT22;19361;51.598;7.650;2023-07-29T00:11:17;22.90;71.40
33007;DHT22;19361;51.598;7.650;2023-07-29T00:16:38;22.80;71.50
33007;DHT22;19361;51.598;7.650;2023-07-29T00:21:59;22.80;71.80
33007;DHT22;19361;51.598;7.650;2023-07-29T00:27:21;22.80;71.90
33007;DHT22;19361;51.598;7.650;2023-07-29T00:32:42;22.80;72.10
33007;DHT22;19361;51.598;7.650;2023-07-29T00:38:03;22.80;72.10
33007;DHT22;19361;51.598;7.650;2023-07-29T00:43:24;22.70;72.30
33007;DHT22;19361;51.598;7.650;2023-07-29T00:48:45;22.70;72.50
33007;DHT22;19361;51.598;7.650;2023-07-29T00:54:06;22.60;72.60
33007;DHT22;19361;51.598;7.650;2023-07-29T00:59:27;22.60;72.80
33007;DHT22;19361;51.598;7.650;2023-07-29T01:04:54;22.60;72.90
33007;DHT22;19361;51.598;7.650;2023-07-29T01:10:33;22.60;73.10
33007;DHT22;19361;51.598;7.650;2023-07-29T01:16:38;22.50;73.60
33007;DHT22;19361;51.598;7.650;2023-07-29T01:21:51;22.50;73.20
33007;DHT22;19361;51.598;7.650;2023-07-29T01:27:13;22.50;72.80
33007;DHT22;19361;51.598;7.650;2023-07-29T01:38:20;22.40;73.20
33007;DHT22;19361;51.598;7.650;2023-07-29T01:43:46;22.40;73.30
33007;DHT22;19361;51.598;7.650;2023-07-29T01:49:07;22.40;73.20
33007;DHT22;19361;51.598;7.650;2023-07-29T01:54:28;22.40;73.10
33007;DHT22;19361;51.598;7.650;2023-07-29T01:59:49;22.40;73.20
33007;DHT22;19361;51.598;7.650;2023-07-29T02:05:10;22.30;73.00
33007;DHT22;19361;51.598;7.650;2023-07-29T02:10:31;22.30;73.00
33007;DHT22;19361;51.598;7.650;2023-07-29T02:15:52;22.20;73.00
33007;DHT22;19361;51.598;7.650;2023-07-29T02:21:13;22.10;73.00
33007;DHT22;19361;51.598;7.650;2023-07-29T02:26:35;22.10;73.20
33007;DHT22;19361;51.598;7.650;2023-07-29T02:31:56;22.10;73.30
33007;DHT22;19361;51.598;7.650;2023-07-29T02:37:17;22.00;73.40
33007;DHT22;19361;51.598;7.650;2023-07-29T02:42:38;22.00;73.70
33007;DHT22;19361;51.598;7.650;2023-07-29T02:47:59;22.00;73.80
33007;DHT22;19361;51.598;7.650;2023-07-29T02:53:21;22.10;73.80
33007;DHT22;19361;51.598;7.650;2023-07-29T02:58:43;22.10;73.90
33007;DHT22;19361;51.598;7.650;2023-07-29T03:04:05;22.10;74.00
33007;DHT22;19361;51.598;7.650;2023-07-29T03:09:26;22.00;73.70
33007;DHT22;19361;51.598;7.650;2023-07-29T03:14:48;22.00;73.80
33007;DHT22;19361;51.598;7.650;2023-07-29T03:20:09;22.00;74.00
33007;DHT22;19361;51.598;7.650;2023-07-29T03:25:31;22.00;74.00
33007;DHT22;19361;51.598;7.650;2023-07-29T03:30:52;22.00;74.10
33007;DHT22;19361;51.598;7.650;2023-07-29T03:36:13;22.00;74.30
33007;DHT22;19361;51.598;7.650;2023-07-29T03:41:34;22.00;74.30
33007;DHT22;19361;51.598;7.650;2023-07-29T03:46:56;22.00;74.40
33007;DHT22;19361;51.598;7.650;2023-07-29T03:52:17;22.00;74.40
33007;DHT22;19361;51.598;7.650;2023-07-29T03:57:38;22.00;74.40
33007;DHT22;19361;51.598;7.650;2023-07-29T04:02:59;22.10;74.50
33007;DHT22;19361;51.598;7.650;2023-07-29T04:08:20;22.10;74.40
33007;DHT22;19361;51.598;7.650;2023-07-29T04:13:41;22.10;74.30
33007;DHT22;19361;51.598;7.650;2023-07-29T04:19:02;22.10;74.30
33007;DHT22;19361;51.598;7.650;2023-07-29T04:24:23;22.00;74.20
33007;DHT22;19361;51.598;7.650;2023-07-29T04:29:44;22.00;74.40
33007;DHT22;19361;51.598;7.650;2023-07-29T04:35:06;22.00;74.50
33007;DHT22;19361;51.598;7.650;2023-07-29T04:40:27;22.00;74.60
33007;DHT22;19361;51.598;7.650;2023-07-29T04:45:48;22.00;74.70
33007;DHT22;19361;51.598;7.650;2023-07-29T04:51:09;22.00;74.90
33007;DHT22;19361;51.598;7.650;2023-07-29T04:56:30;22.10;74.90
33007;DHT22;19361;51.598;7.650;2023-07-29T05:01:51;22.10;75.00
33007;DHT22;19361;51.598;7.650;2023-07-29T05:07:12;22.10;75.10
33007;DHT22;19361;51.598;7.650;2023-07-29T05:12:33;22.10;75.30
33007;DHT22;19361;51.598;7.650;2023-07-29T05:17:54;22.10;75.40
33007;DHT22;19361;51.598;7.650;2023-07-29T05:23:15;22.10;75.40
33007;DHT22;19361;51.598;7.650;2023-07-29T05:28:36;22.10;75.40
33007;DHT22;19361;51.598;7.650;2023-07-29T05:33:58;22.20;75.40
33007;DHT22;19361;51.598;7.650;2023-07-29T05:39:19;22.20;75.50
33007;DHT22;19361;51.598;7.650;2023-07-29T05:44:40;22.30;75.50
33007;DHT22;19361;51.598;7.650;2023-07-29T05:50:02;22.30;75.50
33007;DHT22;19361;51.598;7.650;2023-07-29T05:55:25;22.30;75.60
33007;DHT22;19361;51.598;7.650;2023-07-29T06:00:46;22.40;75.50
33007;DHT22;19361;51.598;7.650;2023-07-29T06:06:07;22.40;75.30
33007;DHT22;19361;51.598;7.650;2023-07-29T06:11:28;22.50;74.90
33007;DHT22;19361;51.598;7.650;2023-07-29T06:16:50;22.60;74.60
33007;DHT22;19361;51.598;7.650;2023-07-29T06:22:11;22.70;74.20
33007;DHT22;19361;51.598;7.650;2023-07-29T06:27:32;22.70;73.80
33007;DHT22;19361;51.598;7.650;2023-07-29T06:32:53;22.70;73.80
33007;DHT22;19361;51.598;7.650;2023-07-29T06:38:15;22.70;73.40
33007;DHT22;19361;51.598;7.650;2023-07-29T06:43:40;22.70;72.60
33007;DHT22;19361;51.598;7.650;2023-07-29T06:49:01;22.70;72.60
33007;DHT22;19361;51.598;7.650;2023-07-29T06:54:25;22.70;72.50
33007;DHT22;19361;51.598;7.650;2023-07-29T06:59:47;22.70;72.60
33007;DHT22;19361;51.598;7.650;2023-07-29T07:05:08;22.70;71.90
33007;DHT22;19361;51.598;7.650;2023-07-29T07:10:29;22.60;70.60
33007;DHT22;19361;51.598;7.650;2023-07-29T07:15:50;22.60;69.10
33007;DHT22;19361;51.598;7.650;2023-07-29T07:21:11;22.60;69.60
33007;DHT22;19361;51.598;7.650;2023-07-29T07:26:32;22.70;69.90
33007;DHT22;19361;51.598;7.650;2023-07-29T07:31:54;22.70;69.50
33007;DHT22;19361;51.598;7.650;2023-07-29T07:37:16;22.70;69.00
33007;DHT22;19361;51.598;7.650;2023-07-29T07:42:37;22.80;68.70
33007;DHT22;19361;51.598;7.650;2023-07-29T07:47:58;22.80;68.20
33007;DHT22;19361;51.598;7.650;2023-07-29T07:53:19;22.90;68.30
33007;DHT22;19361;51.598;7.650;2023-07-29T07:58:41;22.90;67.30
33007;DHT22;19361;51.598;7.650;2023-07-29T08:04:02;23.00;66.80
33007;DHT22;19361;51.598;7.650;2023-07-29T08:09:24;23.10;66.40
33007;DHT22;19361;51.598;7.650;2023-07-29T08:14:45;23.30;66.20
33007;DHT22;19361;51.598;7.650;2023-07-29T08:20:06;23.50;65.10
33007;DHT22;19361;51.598;7.650;2023-07-29T08:25:28;23.60;65.40
33007;DHT22;19361;51.598;7.650;2023-07-29T08:30:50;23.90;64.50
33007;DHT22;19361;51.598;7.650;2023-07-29T08:36:11;24.10;63.40
33007;DHT22;19361;51.598;7.650;2023-07-29T08:41:44;24.40;61.90
33007;DHT22;19361;51.598;7.650;2023-07-29T08:47:09;24.50;59.30
33007;DHT22;19361;51.598;7.650;2023-07-29T08:52:31;24.60;60.60
33007;DHT22;19361;51.598;7.650;2023-07-29T08:57:57;24.70;60.30
33007;DHT22;19361;51.598;7.650;2023-07-29T09:03:20;24.70;59.10
33007;DHT22;19361;51.598;7.650;2023-07-29T09:08:43;24.90;58.80
33007;DHT22;19361;51.598;7.650;2023-07-29T09:14:04;24.90;59.00
33007;DHT22;19361;51.598;7.650;2023-07-29T09:19:26;25.00;58.90
33007;DHT22;19361;51.598;7.650;2023-07-29T09:24:47;25.10;58.60
33007;DHT22;19361;51.598;7.650;2023-07-29T09:30:15;25.20;58.50
33007;DHT22;19361;51.598;7.650;2023-07-29T09:35:38;25.30;58.20
33007;DHT22;19361;51.598;7.650;2023-07-29T09:40:59;25.50;58.20
33007;DHT22;19361;51.598;7.650;2023-07-29T09:46:23;25.70;57.00
33007;DHT22;19361;51.598;7.650;2023-07-29T09:51:45;25.80;57.00
33007;DHT22;19361;51.598;7.650;2023-07-29T09:57:07;25.90;55.70
33007;DHT22;19361;51.598;7.650;2023-07-29T10:02:28;25.90;55.80
33007;DHT22;19361;51.598;7.650;2023-07-29T10:07:51;26.00;55.70
33007;DHT22;19361;51.598;7.650;2023-07-29T10:13:12;26.10;54.30
33007;DHT22;19361;51.598;7.650;2023-07-29T10:18:34;26.20;55.10
33007;DHT22;19361;51.598;7.650;2023-07-29T10:23:56;26.40;55.00
33007;DHT22;19361;51.598;7.650;2023-07-29T10:29:20;26.60;54.40
33007;DHT22;19361;51.598;7.650;2023-07-29T10:34:44;26.90;53.90
33007;DHT22;19361;51.598;7.650;2023-07-29T10:40:10;27.00;52.80
33007;DHT22;19361;51.598;7.650;2023-07-29T10:45:40;27.10;52.00
33007;DHT22;19361;51.598;7.650;2023-07-29T10:51:30;27.20;53.00
33007;DHT22;19361;51.598;7.650;2023-07-29T10:56:58;27.20;52.70
33007;DHT22;19361;51.598;7.650;2023-07-29T11:02:19;27.10;53.00
33007;DHT22;19361;51.598;7.650;2023-07-29T11:07:45;27.10;52.70
33007;DHT22;19361;51.598;7.650;2023-07-29T11:13:07;27.10;52.90
33007;DHT22;19361;51.598;7.650;2023-07-29T11:18:34;27.20;52.50
33007;DHT22;19361;51.598;7.650;2023-07-29T11:23:56;27.30;52.70
33007;DHT22;19361;51.598;7.650;2023-07-29T11:29:18;27.40;52.10
33007;DHT22;19361;51.598;7.650;2023-07-29T11:34:41;27.50;51.00
33007;DHT22;19361;51.598;7.650;2023-07-29T11:40:03;27.50;50.70
33007;DHT22;19361;51.598;7.650;2023-07-29T11:45:25;27.40;52.00
33007;DHT22;19361;51.598;7.650;2023-07-29T11:50:46;27.50;50.70
33007;DHT22;19361;51.598;7.650;2023-07-29T11:56:07;27.60;51.70
33007;DHT22;19361;51.598;7.650;2023-07-29T12:01:28;27.80;51.10
33007;DHT22;19361;51.598;7.650;2023-07-29T12:06:49;27.90;50.10
33007;DHT22;19361;51.598;7.650;2023-07-29T12:12:11;28.10;49.70
33007;DHT22;19361;51.598;7.650;2023-07-29T12:17:39;28.20;48.70
33007;DHT22;19361;51.598;7.650;2023-07-29T12:23:01;28.20;49.40
33007;DHT22;19361;51.598;7.650;2023-07-29T12:28:23;28.20;49.40
33007;DHT22;19361;51.598;7.650;2023-07-29T12:33:44;28.20;49.70
33007;DHT22;19361;51.598;7.650;2023-07-29T12:39:05;28.30;49.50
33007;DHT22;19361;51.598;7.650;2023-07-29T12:44:32;28.50;49.00
33007;DHT22;19361;51.598;7.650;2023-07-29T12:49:54;28.60;48.70
33007;DHT22;19361;51.598;7.650;2023-07-29T12:55:15;28.70;47.90
33007;DHT22;19361;51.598;7.650;2023-07-29T13:00:36;28.70;48.30
33007;DHT22;19361;51.598;7.650;2023-07-29T13:05:59;28.80;47.60
33007;DHT22;19361;51.598;7.650;2023-07-29T13:11:20;28.70;46.80
33007;DHT22;19361;51.598;7.650;2023-07-29T13:16:41;28.70;47.60
33007;DHT22;19361;51.598;7.650;2023-07-29T13:22:02;28.80;48.00
33007;DHT22;19361;51.598;7.650;2023-07-29T13:27:23;28.90;46.80
33007;DHT22;19361;51.598;7.650;2023-07-29T13:32:46;28.90;46.50
33007;DHT22;19361;51.598;7.650;2023-07-29T13:38:07;29.00;46.70
33007;DHT22;19361;51.598;7.650;2023-07-29T13:43:28;29.00;46.50
33007;DHT22;19361;51.598;7.650;2023-07-29T13:48:49;28.90;46.40
33007;DHT22;19361;51.598;7.650;2023-07-29T13:54:10;28.80;46.50
33007;DHT22;19361;51.598;7.650;2023-07-29T13:59:31;28.80;46.70
33007;DHT22;19361;51.598;7.650;2023-07-29T14:04:53;28.80;46.40
33007;DHT22;19361;51.598;7.650;2023-07-29T14:10:14;28.80;45.80
33007;DHT22;19361;51.598;7.650;2023-07-29T14:15:35;28.70;46.10
33007;DHT22;19361;51.598;7.650;2023-07-29T14:20:56;28.60;46.00
33007;DHT22;19361;51.598;7.650;2023-07-29T14:26:17;28.30;46.10
33007;DHT22;19361;51.598;7.650;2023-07-29T14:31:38;28.10;46.80
33007;DHT22;19361;51.598;7.650;2023-07-29T14:36:59;27.80;47.10
33007;DHT22;19361;51.598;7.650;2023-07-29T14:42:21;27.60;48.60
33007;DHT22;19361;51.598;7.650;2023-07-29T14:47:42;27.30;50.10
33007;DHT22;19361;51.598;7.650;2023-07-29T14:53:03;27.00;51.10
33007;DHT22;19361;51.598;7.650;2023-07-29T14:58:24;26.70;52.70
33007;DHT22;19361;51.598;7.650;2023-07-29T15:03:46;26.30;54.30
33007;DHT22;19361;51.598;7.650;2023-07-29T15:09:07;25.90;54.50
33007;DHT22;19361;51.598;7.650;2023-07-29T15:14:28;25.30;53.00
33007;DHT22;19361;51.598;7.650;2023-07-29T15:19:50;24.70;54.10
33007;DHT22;19361;51.598;7.650;2023-07-29T15:25:11;24.20;55.50
33007;DHT22;19361;51.598;7.650;2023-07-29T15:30:35;23.90;57.20
33007;DHT22;19361;51.598;7.650;2023-07-29T15:35:57;23.90;58.80
33007;DHT22;19361;51.598;7.650;2023-07-29T15:41:18;24.10;58.80
33007;DHT22;19361;51.598;7.650;2023-07-29T15:46:39;24.30;59.00
33007;DHT22;19361;51.598;7.650;2023-07-29T15:52:00;24.50;59.60
33007;DHT22;19361;51.598;7.650;2023-07-29T15:57:21;24.60;59.10
33007;DHT22;19361;51.598;7.650;2023-07-29T16:02:42;24.70;59.20
33007;DHT22;19361;51.598;7.650;2023-07-29T16:08:04;24.70;59.80
33007;DHT22;19361;51.598;7.650;2023-07-29T16:13:26;24.70;60.90
33007;DHT22;19361;51.598;7.650;2023-07-29T16:18:47;24.80;60.80
33007;DHT22;19361;51.598;7.650;2023-07-29T16:24:08;24.80;60.40
33007;DHT22;19361;51.598;7.650;2023-07-29T16:29:29;24.90;60.80
33007;DHT22;19361;51.598;7.650;2023-07-29T16:34:50;24.90;60.60
33007;DHT22;19361;51.598;7.650;2023-07-29T16:40:12;24.90;60.90
33007;DHT22;19361;51.598;7.650;2023-07-29T16:45:33;24.90;60.40
33007;DHT22;19361;51.598;7.650;2023-07-29T16:50:54;25.00;60.90
33007;DHT22;19361;51.598;7.650;2023-07-29T16:56:15;25.00;59.90
33007;DHT22;19361;51.598;7.650;2023-07-29T17:01:36;25.10;60.30
33007;DHT22;19361;51.598;7.650;2023-07-29T17:06:57;25.10;59.80
33007;DHT22;19361;51.598;7.650;2023-07-29T17:12:18;25.10;59.80
33007;DHT22;19361;51.598;7.650;2023-07-29T17:17:40;25.10;60.50
33007;DHT22;19361;51.598;7.650;2023-07-29T17:23:01;25.00;60.10
33007;DHT22;19361;51.598;7.650;2023-07-29T17:28:22;25.00;60.30
33007;DHT22;19361;51.598;7.650;2023-07-29T17:33:43;24.80;60.50
33007;DHT22;19361;51.598;7.650;2023-07-29T17:39:05;24.80;61.10
33007;DHT22;19361;51.598;7.650;2023-07-29T17:44:27;24.80;61.40
33007;DHT22;19361;51.598;7.650;2023-07-29T17:49:48;24.70;61.90
33007;DHT22;19361;51.598;7.650;2023-07-29T17:55:09;24.60;62.00
33007;DHT22;19361;51.598;7.650;2023-07-29T18:00:31;24.50;62.10
33007;DHT22;19361;51.598;7.650;2023-07-29T18:05:52;24.50;62.10
33007;DHT22;19361;51.598;7.650;2023-07-29T18:11:13;24.50;62.70
33007;DHT22;19361;51.598;7.650;2023-07-29T18:16:35;24.60;62.80
33007;DHT22;19361;51.598;7.650;2023-07-29T18:21:59;24.60;63.40
33007;DHT22;19361;51.598;7.650;2023-07-29T18:27:20;24.50;63.00
33007;DHT22;19361;51.598;7.650;2023-07-29T18:32:44;24.50;63.20
33007;DHT22;19361;51.598;7.650;2023-07-29T18:38:05;24.50;63.70
33007;DHT22;19361;51.598;7.650;2023-07-29T18:43:26;24.50;63.70
33007;DHT22;19361;51.598;7.650;2023-07-29T18:48:48;24.50;64.00
33007;DHT22;19361;51.598;7.650;2023-07-29T18:54:09;24.40;64.30
33007;DHT22;19361;51.598;7.650;2023-07-29T18:59:30;24.40;64.70
33007;DHT22;19361;51.598;7.650;2023-07-29T19:04:51;24.30;65.20
33007;DHT22;19361;51.598;7.650;2023-07-29T19:10:12;24.30;64.90
33007;DHT22;19361;51.598;7.650;2023-07-29T19:15:33;24.20;64.90
33007;DHT22;19361;51.598;7.650;2023-07-29T19:20:54;24.10;64.90
33007;DHT22;19361;51.598;7.650;2023-07-29T19:26:16;23.90;64.30
33007;DHT22;19361;51.598;7.650;2023-07-29T19:31:41;23.90;64.50
33007;DHT22;19361;51.598;7.650;2023-07-29T19:37:05;23.70;64.50
33007;DHT22;19361;51.598;7.650;2023-07-29T19:42:27;23.60;65.10
33007;DHT22;19361;51.598;7.650;2023-07-29T19:47:48;23.50;65.60
33007;DHT22;19361;51.598;7.650;2023-07-29T19:53:09;23.40;66.20
33007;DHT22;19361;51.598;7.650;2023-07-29T19:58:30;23.30;66.30
33007;DHT22;19361;51.598;7.650;2023-07-29T20:03:52;23.20;66.10
33007;DHT22;19361;51.598;7.650;2023-07-29T20:09:13;23.20;66.20
33007;DHT22;19361;51.598;7.650;2023-07-29T20:14:35;23.10;66.30
33007;DHT22;19361;51.598;7.650;2023-07-29T20:19:56;23.00;66.70
33007;DHT22;19361;51.598;7.650;2023-07-29T20:25:17;23.00;66.60
33007;DHT22;19361;51.598;7.650;2023-07-29T20:30:38;22.90;66.60
33007;DHT22;19361;51.598;7.650;2023-07-29T20:35:59;22.80;66.70
33007;DHT22;19361;51.598;7.650;2023-07-29T20:41:21;22.70;66.70
33007;DHT22;19361;51.598;7.650;2023-07-29T20:46:42;22.60;66.60
33007;DHT22;19361;51.598;7.650;2023-07-29T20:52:04;22.50;66.70
33007;DHT22;19361;51.598;7.650;2023-07-29T20:57:25;22.40;67.10
33007;DHT22;19361;51.598;7.650;2023-07-29T21:02:46;22.40;67.40
33007;DHT22;19361;51.598;7.650;2023-07-29T21:08:07;22.30;67.80
33007;DHT22;19361;51.598;7.650;2023-07-29T21:13:28;22.30;67.80
33007;DHT22;19361;51.598;7.650;2023-07-29T21:18:50;22.30;67.90
33007;DHT22;19361;51.598;7.650;2023-07-29T21:24:11;22.20;68.20
33007;DHT22;19361;51.598;7.650;2023-07-29T21:29:32;22.20;68.10
33007;DHT22;19361;51.598;7.650;2023-07-29T21:34:53;22.10;68.20
33007;DHT22;19361;51.598;7.650;2023-07-29T21:40:14;22.00;68.30
33007;DHT22;19361;51.598;7.650;2023-07-29T21:45:35;22.00;68.80
33007;DHT22;19361;51.598;7.650;2023-07-29T21:50:56;22.10;69.00
33007;DHT22;19361;51.598;7.650;2023-07-29T21:56:18;22.10;69.00
33007;DHT22;19361;51.598;7.650;2023-07-29T22:01:39;22.10;69.00
33007;DHT22;19361;51.598;7.650;2023-07-29T22:07:00;22.10;69.30
33007;DHT22;19361;51.598;7.650;2023-07-29T22:12:21;22.10;69.50
33007;DHT22;19361;51.598;7.650;2023-07-29T22:17:43;22.10;69.50
33007;DHT22;19361;51.598;7.650;2023-07-29T22:23:04;22.10;69.50
33007;DHT22;19361;51.598;7.650;2023-07-29T22:28:25;22.10;69.80
33007;DHT22;19361;51.598;7.650;2023-07-29T22:33:50;22.00;69.70
33007;DHT22;19361;51.598;7.650;2023-07-29T22:39:12;22.00;69.90
33007;DHT22;19361;51.598;7.650;2023-07-29T22:44:33;22.00;69.80
33007;DHT22;19361;51.598;7.650;2023-07-29T22:49:54;21.90;70.00
33007;DHT22;19361;51.598;7.650;2023-07-29T22:55:15;21.90;69.80
33007;DHT22;19361;51.598;7.650;2023-07-29T23:00:36;21.90;69.90
33007;DHT22;19361;51.598;7.650;2023-07-29T23:05:57;21.80;70.00
33007;DHT22;19361;51.598;7.650;2023-07-29T23:11:18;21.80;70.10
33007;DHT22;19361;51.598;7.650;2023-07-29T23:16:39;21.80;70.00
33007;DHT22;19361;51.598;7.650;2023-07-29T23:22:00;21.70;69.80
33007;DHT22;19361;51.598;7.650;2023-07-29T23:27:21;21.70;69.80
33007;DHT22;19361;51.598;7.650;2023-07-29T23:32:42;21.60;69.90
33007;DHT22;19361;51.598;7.650;2023-07-29T23:38:05;21.60;69.90
33007;DHT22;19361;51.598;7.650;2023-07-29T23:43:26;21.50;70.10
33007;DHT22;19361;51.598;7.650;2023-07-29T23:48:47;21.50;70.00
33007;DHT22;19361;51.598;7.650;2023-07-29T23:54:08;21.40;69.90
33007;DHT22;19361;51.598;7.650;2023-07-29T23:59:29;21.40;70.00
